Boulevard, New York
Current Conditions -  °F | °C
As of 3:51 AM on Saturday 20 Dec 2014 (Local Time) from KLGA Reporting Station
Overcast Overcast  
Wind Chill: 23°   Ceiling: 2800
Heat Index: 31°   Visibility: 10mi
Dew Point: 21°   Wind: 8mph
Humidity: 67%   Direction: 10°N
Pressure: 30.22"   Gusts: NA
Location:  40.8106°N, 73.8845°W
Report Text: KLGA 200851Z 01007KT 10SM OVC028 M01/M06 A3022 RMK AO2 SLP233 T10061061 53010
Loading
Personal Weather Stations






























Interactive Weather Map New forecast layout! Learn more

10-Day Weather Forecast

Advertisements
Track Severe Weather on mobile